Time;durP1;ratioP1;P1;durP2;ratioP2;P2;SDS_P1;SDS_P2;PMS_P1;PMS_P2;Temp;Humidity;BMP_temperature;BMP_pressure;BME280_temperature;BME280_humidity;BME280_pressure;Samples;Min_cycle;Max_cycle;Signal;HPM_P1;HPM_P2
2023/12/17 00:00:37;;;;;;;2.35;1.17;;;;;;;;;;4920463;29;20056;-82
2023/12/17 00:03:07;;;;;;;3.25;1.08;;;;;;;;;;4919017;29;20043;-81
2023/12/17 00:05:49;;;;;;;4.20;1.20;;;;;;;;;;4937135;29;20073;-84
2023/12/17 00:08:21;;;;;;;3.13;1.20;;;;;;;;;;4919792;29;20478;-81
2023/12/17 00:10:52;;;;;;;3.05;1.40;;;;;;;;;;4936789;29;20047;-83
2023/12/17 00:13:24;;;;;;;2.42;1.20;;;;;;;;;;4920604;29;20044;-83
2023/12/17 00:15:55;;;;;;;2.42;1.05;;;;;;;;;;4920157;29;20047;-82
2023/12/17 00:18:25;;;;;;;4.00;1.60;;;;;;;;;;4914158;29;20051;-85
2023/12/17 00:20:58;;;;;;;3.35;1.05;;;;;;;;;;4898228;29;20479;-84
2023/12/17 00:23:28;;;;;;;1.90;1.10;;;;;;;;;;4913490;29;20052;-84
2023/12/17 00:25:59;;;;;;;3.80;1.55;;;;;;;;;;4914233;29;20490;-84
2023/12/17 00:28:29;;;;;;;1.80;1.20;;;;;;;;;;4927467;29;20055;-82
2023/12/17 00:31:00;;;;;;;2.38;1.20;;;;;;;;;;4916088;29;20055;-84
2023/12/17 00:33:30;;;;;;;3.38;1.50;;;;;;;;;;4916918;29;20043;-84
2023/12/17 00:36:01;;;;;;;6.82;1.80;;;;;;;;;;4915625;29;20482;-84
2023/12/17 00:38:33;;;;;;;3.33;1.30;;;;;;;;;;4933163;29;20425;-83
2023/12/17 00:41:04;;;;;;;3.60;1.23;;;;;;;;;;4932404;29;20060;-84
2023/12/17 00:43:36;;;;;;;3.65;1.50;;;;;;;;;;4934028;29;20047;-83
2023/12/17 00:46:07;;;;;;;5.75;1.45;;;;;;;;;;4915609;29;20062;-84
2023/12/17 00:48:37;;;;;;;3.65;1.35;;;;;;;;;;4934044;29;20474;-83
2023/12/17 00:51:11;;;;;;;4.07;1.30;;;;;;;;;;4931406;29;20051;-86
2023/12/17 00:53:42;;;;;;;3.80;1.35;;;;;;;;;;4933728;29;20047;-83
2023/12/17 00:56:12;;;;;;;5.68;1.80;;;;;;;;;;4916555;29;20098;-83
2023/12/17 00:58:43;;;;;;;3.28;1.30;;;;;;;;;;4933014;29;20055;-83
2023/12/17 01:01:16;;;;;;;4.18;1.40;;;;;;;;;;4933489;29;20062;-86
2023/12/17 01:03:48;;;;;;;4.18;1.63;;;;;;;;;;4928387;29;20483;-87
2023/12/17 01:06:18;;;;;;;6.93;1.55;;;;;;;;;;4897823;29;20048;-84
2023/12/17 01:08:49;;;;;;;3.05;1.35;;;;;;;;;;4914311;29;20052;-83
2023/12/17 01:11:19;;;;;;;7.13;1.90;;;;;;;;;;4914286;29;20056;-82
2023/12/17 01:18:02;;;;;;;4.95;1.65;;;;;;;;;;5139900;23;20052;-81
2023/12/17 01:20:35;;;;;;;4.78;1.38;;;;;;;;;;4920470;29;20051;-82
2023/12/17 01:23:05;;;;;;;3.72;2.05;;;;;;;;;;4935169;29;20085;-82
2023/12/17 01:25:35;;;;;;;6.03;1.50;;;;;;;;;;4920251;29;20058;-82
2023/12/17 01:28:06;;;;;;;4.82;1.63;;;;;;;;;;4952506;29;20063;-81
2023/12/17 01:30:36;;;;;;;3.92;1.17;;;;;;;;;;4935030;29;20063;-83
2023/12/17 01:33:07;;;;;;;3.60;0.93;;;;;;;;;;4952331;29;20059;-84
2023/12/17 01:35:38;;;;;;;3.78;1.45;;;;;;;;;;4953426;29;20050;-85
2023/12/17 01:38:08;;;;;;;4.18;1.17;;;;;;;;;;4919499;29;20055;-85
2023/12/17 01:40:39;;;;;;;2.85;1.20;;;;;;;;;;4953148;29;20047;-82
2023/12/17 01:43:13;;;;;;;3.55;1.20;;;;;;;;;;4920001;29;20063;-86
2023/12/17 01:45:43;;;;;;;5.13;1.20;;;;;;;;;;4952499;29;20039;-83
2023/12/17 01:48:14;;;;;;;3.15;1.02;;;;;;;;;;4953066;28;20439;-84
2023/12/17 01:50:45;;;;;;;2.25;0.90;;;;;;;;;;4938802;29;20070;-84
2023/12/17 01:53:17;;;;;;;2.40;1.00;;;;;;;;;;4923245;29;20054;-84
2023/12/17 01:55:49;;;;;;;4.15;1.17;;;;;;;;;;4938840;29;20494;-83
2023/12/17 01:58:19;;;;;;;2.30;1.38;;;;;;;;;;4954481;29;20490;-82
2023/12/17 02:04:22;;;;;;;2.72;1.30;;;;;;;;;;4955556;29;20051;-86
2023/12/17 02:06:54;;;;;;;2.97;1.02;;;;;;;;;;4936358;29;20043;-84
2023/12/17 02:09:24;;;;;;;3.13;1.13;;;;;;;;;;4954513;28;20062;-85
2023/12/17 02:11:55;;;;;;;5.22;1.20;;;;;;;;;;4938637;29;20044;-86
2023/12/17 02:14:26;;;;;;;6.03;1.45;;;;;;;;;;4937672;29;20055;-84
2023/12/17 02:16:56;;;;;;;2.47;1.10;;;;;;;;;;4937447;29;20055;-83
2023/12/17 02:19:26;;;;;;;1.85;1.20;;;;;;;;;;4921365;29;20054;-84
2023/12/17 02:21:56;;;;;;;2.75;1.27;;;;;;;;;;4938291;29;20389;-85
2023/12/17 02:24:26;;;;;;;2.28;1.10;;;;;;;;;;4937525;29;20051;-86
2023/12/17 02:26:57;;;;;;;2.30;1.10;;;;;;;;;;4937119;29;20062;-86
2023/12/17 02:29:28;;;;;;;2.65;1.10;;;;;;;;;;4919161;29;20058;-82
2023/12/17 02:31:59;;;;;;;2.78;1.20;;;;;;;;;;4922875;29;20055;-83
2023/12/17 02:34:30;;;;;;;3.17;1.30;;;;;;;;;;4956350;29;20039;-82
2023/12/17 02:36:59;;;;;;;7.35;1.50;;;;;;;;;;4955449;29;20047;-81
2023/12/17 02:39:31;;;;;;;2.50;1.10;;;;;;;;;;4956723;29;20046;-84
2023/12/17 02:42:02;;;;;;;2.10;1.00;;;;;;;;;;4938495;29;20039;-83
2023/12/17 02:44:32;;;;;;;4.00;1.55;;;;;;;;;;4955546;29;20477;-82
2023/12/17 02:47:02;;;;;;;5.07;1.38;;;;;;;;;;4957797;29;20462;-82
2023/12/17 02:49:33;;;;;;;2.67;1.38;;;;;;;;;;4957530;29;20091;-82
2023/12/17 02:52:05;;;;;;;2.42;1.00;;;;;;;;;;4940654;29;20050;-83
2023/12/17 02:54:35;;;;;;;2.22;1.02;;;;;;;;;;4940600;29;20389;-84
2023/12/17 02:57:08;;;;;;;4.43;1.58;;;;;;;;;;4939688;29;20066;-83
2023/12/17 02:59:40;;;;;;;2.55;1.05;;;;;;;;;;4939335;29;20058;-86
2023/12/17 03:02:42;;;;;;;3.08;1.08;;;;;;;;;;4957056;29;20043;-86
2023/12/17 03:05:12;;;;;;;6.93;1.58;;;;;;;;;;4957300;29;20359;-84
2023/12/17 03:07:43;;;;;;;4.25;1.50;;;;;;;;;;4941084;29;20041;-83
2023/12/17 03:10:13;;;;;;;3.10;1.70;;;;;;;;;;4939209;29;20047;-83
2023/12/17 03:12:45;;;;;;;4.88;1.45;;;;;;;;;;4940716;29;20047;-83
2023/12/17 03:15:16;;;;;;;4.28;1.67;;;;;;;;;;4961056;29;20061;-86
2023/12/17 03:17:47;;;;;;;4.82;1.65;;;;;;;;;;4968409;29;20346;-84
2023/12/17 03:20:17;;;;;;;5.65;1.75;;;;;;;;;;4951033;29;20043;-83
2023/12/17 03:22:47;;;;;;;6.53;1.50;;;;;;;;;;4951166;29;20119;-84
2023/12/17 03:25:18;;;;;;;7.60;1.95;;;;;;;;;;4967786;29;20051;-84
2023/12/17 03:27:48;;;;;;;6.38;1.77;;;;;;;;;;4954373;29;20055;-84
2023/12/17 03:30:18;;;;;;;5.68;2.00;;;;;;;;;;4957013;29;20031;-83
2023/12/17 03:32:49;;;;;;;5.55;2.30;;;;;;;;;;4944968;28;20047;-85
2023/12/17 03:35:20;;;;;;;6.00;1.83;;;;;;;;;;4933138;29;20055;-84
2023/12/17 03:37:50;;;;;;;3.05;1.52;;;;;;;;;;4936042;29;20039;-84
2023/12/17 03:40:19;;;;;;;4.93;2.05;;;;;;;;;;4926666;29;20398;-84
2023/12/17 03:42:49;;;;;;;6.43;1.90;;;;;;;;;;4959409;29;20047;-83
2023/12/17 03:45:19;;;;;;;4.82;1.70;;;;;;;;;;4959376;29;20075;-86
2023/12/17 03:47:52;;;;;;;9.23;2.20;;;;;;;;;;4940707;29;20463;-84
2023/12/17 03:50:23;;;;;;;5.88;2.13;;;;;;;;;;4939158;29;20047;-86
2023/12/17 03:52:54;;;;;;;5.55;1.95;;;;;;;;;;4956211;29;20035;-83
2023/12/17 03:55:24;;;;;;;5.10;1.92;;;;;;;;;;4923579;29;20054;-86
2023/12/17 03:57:54;;;;;;;10.48;2.25;;;;;;;;;;4938863;29;20051;-84
2023/12/17 04:00:25;;;;;;;4.95;1.90;;;;;;;;;;4958786;29;20052;-85
2023/12/17 04:02:56;;;;;;;6.05;2.05;;;;;;;;;;4940345;29;20059;-87
2023/12/17 04:05:26;;;;;;;5.70;1.70;;;;;;;;;;4953599;29;20051;-85
2023/12/17 04:07:57;;;;;;;8.63;1.90;;;;;;;;;;4923642;29;20043;-84
2023/12/17 04:10:30;;;;;;;7.70;2.53;;;;;;;;;;4939444;28;20056;-84
2023/12/17 04:13:01;;;;;;;5.32;2.42;;;;;;;;;;4954822;29;20404;-84
2023/12/17 04:15:32;;;;;;;5.40;2.22;;;;;;;;;;4923510;29;20054;-87
2023/12/17 04:18:04;;;;;;;5.28;2.13;;;;;;;;;;4954367;29;20450;-85
2023/12/17 04:20:34;;;;;;;3.90;1.92;;;;;;;;;;4923362;29;20047;-85
2023/12/17 04:23:04;;;;;;;7.95;2.30;;;;;;;;;;4938442;29;20442;-84
2023/12/17 04:25:35;;;;;;;6.65;1.80;;;;;;;;;;4939775;29;20051;-83
2023/12/17 04:28:05;;;;;;;6.82;2.03;;;;;;;;;;4956629;29;20035;-84
2023/12/17 04:30:35;;;;;;;6.50;2.00;;;;;;;;;;4922615;29;20058;-84
2023/12/17 04:33:06;;;;;;;6.35;2.45;;;;;;;;;;4939031;29;20066;-84
2023/12/17 04:35:36;;;;;;;5.35;2.20;;;;;;;;;;4924831;29;20062;-83
2023/12/17 04:38:07;;;;;;;5.00;2.20;;;;;;;;;;4923379;29;20047;-84
2023/12/17 04:40:39;;;;;;;5.95;2.22;;;;;;;;;;4939618;29;20047;-83
2023/12/17 04:43:10;;;;;;;8.65;2.38;;;;;;;;;;4937795;29;20050;-86
2023/12/17 04:45:42;;;;;;;8.20;1.77;;;;;;;;;;4922354;29;20043;-83
2023/12/17 04:48:15;;;;;;;8.48;2.20;;;;;;;;;;4937889;29;20047;-83
2023/12/17 04:50:46;;;;;;;8.38;1.80;;;;;;;;;;4921905;29;20106;-84
2023/12/17 04:53:16;;;;;;;3.67;2.00;;;;;;;;;;4954092;29;20478;-82
2023/12/17 04:55:47;;;;;;;3.47;1.63;;;;;;;;;;4955346;29;20039;-83
2023/12/17 04:58:17;;;;;;;4.35;1.83;;;;;;;;;;4937783;29;20062;-83
2023/12/17 05:00:47;;;;;;;3.40;1.88;;;;;;;;;;4922257;29;20047;-82
2023/12/17 05:03:18;;;;;;;6.95;1.80;;;;;;;;;;4955088;29;20048;-82
2023/12/17 05:05:48;;;;;;;6.68;2.10;;;;;;;;;;4937150;29;20048;-85
2023/12/17 05:08:19;;;;;;;3.42;1.70;;;;;;;;;;4937450;29;20051;-83
2023/12/17 05:10:51;;;;;;;7.18;1.85;;;;;;;;;;4938553;29;20054;-84
2023/12/17 05:13:22;;;;;;;7.25;1.90;;;;;;;;;;4953636;29;20074;-83
2023/12/17 05:15:53;;;;;;;6.03;2.60;;;;;;;;;;4955495;29;20035;-83
2023/12/17 05:18:24;;;;;;;5.72;1.95;;;;;;;;;;4938015;29;20525;-85
2023/12/17 05:20:58;;;;;;;3.50;2.05;;;;;;;;;;4937272;29;20063;-84
2023/12/17 05:23:28;;;;;;;8.27;2.00;;;;;;;;;;4939594;29;20050;-84
2023/12/17 05:26:00;;;;;;;6.55;1.92;;;;;;;;;;4941469;29;20047;-82
2023/12/17 05:28:31;;;;;;;7.72;2.55;;;;;;;;;;4958871;29;20039;-87
2023/12/17 05:31:01;;;;;;;7.03;2.20;;;;;;;;;;4941315;29;20047;-82
2023/12/17 05:33:32;;;;;;;7.97;2.13;;;;;;;;;;4941061;29;20339;-84
2023/12/17 05:36:04;;;;;;;5.50;1.70;;;;;;;;;;4958562;29;20497;-82
2023/12/17 05:38:36;;;;;;;4.18;2.22;;;;;;;;;;4958800;29;20047;-85
2023/12/17 05:41:06;;;;;;;3.63;2.08;;;;;;;;;;4925574;29;20054;-85
2023/12/17 05:43:37;;;;;;;8.15;1.95;;;;;;;;;;4942885;29;20051;-86
2023/12/17 05:46:10;;;;;;;10.35;2.17;;;;;;;;;;4942790;29;20042;-84
2023/12/17 05:48:42;;;;;;;7.93;2.35;;;;;;;;;;4959144;29;20043;-83
2023/12/17 05:51:13;;;;;;;4.43;2.05;;;;;;;;;;4926338;29;20050;-84
2023/12/17 05:53:44;;;;;;;7.35;2.30;;;;;;;;;;4957733;29;20051;-84
2023/12/17 05:56:15;;;;;;;3.58;2.25;;;;;;;;;;4941681;29;20055;-85
2023/12/17 05:58:48;;;;;;;6.53;1.95;;;;;;;;;;4955980;29;20154;-84
2023/12/17 06:01:19;;;;;;;9.63;2.15;;;;;;;;;;4941088;29;20054;-87
2023/12/17 06:03:49;;;;;;;6.40;2.83;;;;;;;;;;4957405;29;20385;-87
2023/12/17 06:06:20;;;;;;;4.93;2.03;;;;;;;;;;4941968;29;20071;-84
2023/12/17 06:08:51;;;;;;;9.30;2.30;;;;;;;;;;4958892;29;20501;-84
2023/12/17 06:11:22;;;;;;;6.18;2.30;;;;;;;;;;4926315;29;20043;-89
2023/12/17 06:13:52;;;;;;;10.23;2.45;;;;;;;;;;4925888;29;20047;-84
2023/12/17 06:16:23;;;;;;;5.22;1.90;;;;;;;;;;4958824;29;20058;-85
2023/12/17 06:18:54;;;;;;;7.90;2.42;;;;;;;;;;4942351;29;20051;-88
2023/12/17 06:21:27;;;;;;;5.10;2.45;;;;;;;;;;4943628;29;20039;-85
2023/12/17 06:23:58;;;;;;;5.45;2.00;;;;;;;;;;4943524;29;20051;-84
2023/12/17 06:26:29;;;;;;;6.90;2.20;;;;;;;;;;4959859;29;20058;-84
2023/12/17 06:29:00;;;;;;;8.40;2.22;;;;;;;;;;4942986;29;20043;-88
2023/12/17 06:31:31;;;;;;;3.67;2.05;;;;;;;;;;4928856;29;20058;-87
2023/12/17 06:34:02;;;;;;;5.20;2.13;;;;;;;;;;4942530;29;20039;-85
2023/12/17 06:36:33;;;;;;;4.13;2.60;;;;;;;;;;4957677;29;20050;-84
2023/12/17 06:39:08;;;;;;;6.03;2.13;;;;;;;;;;4941815;29;20051;-83
2023/12/17 06:41:46;;;;;;;6.40;2.38;;;;;;;;;;4958392;29;20504;-87
2023/12/17 06:44:18;;;;;;;10.32;2.20;;;;;;;;;;4943231;29;20054;-83
2023/12/17 06:46:50;;;;;;;8.20;2.03;;;;;;;;;;4942791;29;20502;-84
2023/12/17 06:49:20;;;;;;;5.35;2.20;;;;;;;;;;4958018;29;20055;-84
2023/12/17 06:51:51;;;;;;;5.85;2.20;;;;;;;;;;4940041;29;20513;-85
2023/12/17 06:54:21;;;;;;;8.10;2.40;;;;;;;;;;4957354;29;20043;-84
2023/12/17 06:56:52;;;;;;;5.75;2.22;;;;;;;;;;4924311;29;20050;-86
2023/12/17 06:59:22;;;;;;;8.10;2.55;;;;;;;;;;4940645;29;20047;-85
2023/12/17 07:01:52;;;;;;;6.50;2.17;;;;;;;;;;4960089;29;20039;-87
2023/12/17 07:04:22;;;;;;;6.95;2.50;;;;;;;;;;4957711;29;20043;-86
2023/12/17 07:06:52;;;;;;;12.98;2.25;;;;;;;;;;4958071;29;20054;-85
2023/12/17 07:09:24;;;;;;;9.40;2.47;;;;;;;;;;4956892;29;20394;-84
2023/12/17 07:11:54;;;;;;;;;;;;;;;;;;4940767;29;20385;-84
2023/12/17 07:14:25;;;;;;;4.78;2.30;;;;;;;;;;4926914;29;19918;-85
2023/12/17 07:16:55;;;;;;;8.35;2.20;;;;;;;;;;4940536;29;20051;-84
2023/12/17 07:19:28;;;;;;;5.20;2.47;;;;;;;;;;4928087;29;20059;-82
2023/12/17 07:21:58;;;;;;;8.50;2.15;;;;;;;;;;4942642;29;20058;-85
2023/12/17 07:24:28;;;;;;;6.93;2.00;;;;;;;;;;4942109;29;20058;-85
2023/12/17 07:26:59;;;;;;;7.30;2.15;;;;;;;;;;4926773;29;20051;-86
2023/12/17 07:29:29;;;;;;;11.52;2.22;;;;;;;;;;4938699;29;20050;-85
2023/12/17 07:32:00;;;;;;;7.93;2.60;;;;;;;;;;4939088;29;20058;-84
2023/12/17 07:34:30;;;;;;;6.72;2.20;;;;;;;;;;4939793;29;20051;-84
2023/12/17 07:37:02;;;;;;;6.07;2.17;;;;;;;;;;4938912;29;20054;-84
2023/12/17 07:39:33;;;;;;;4.90;2.28;;;;;;;;;;4939095;29;20043;-88
2023/12/17 07:42:05;;;;;;;7.00;2.50;;;;;;;;;;4954305;29;20043;-83
2023/12/17 07:44:35;;;;;;;8.35;2.30;;;;;;;;;;4938957;29;20058;-86
2023/12/17 07:47:06;;;;;;;8.90;2.53;;;;;;;;;;4939029;29;20047;-83
2023/12/17 07:49:36;;;;;;;5.20;2.47;;;;;;;;;;4938795;29;20043;-82
2023/12/17 07:52:07;;;;;;;4.30;2.35;;;;;;;;;;4954396;29;20050;-84
2023/12/17 07:54:38;;;;;;;6.22;2.35;;;;;;;;;;4939728;29;20062;-84
2023/12/17 07:57:09;;;;;;;6.82;2.35;;;;;;;;;;4923721;29;20481;-83
2023/12/17 07:59:41;;;;;;;6.32;2.35;;;;;;;;;;4939917;29;20047;-82
2023/12/17 08:02:12;;;;;;;6.75;2.25;;;;;;;;;;4939924;29;20056;-84
2023/12/17 08:04:43;;;;;;;6.10;2.20;;;;;;;;;;4938255;29;20055;-84
2023/12/17 08:07:16;;;;;;;5.25;2.10;;;;;;;;;;4922348;29;20047;-83
2023/12/17 08:09:46;;;;;;;5.47;2.15;;;;;;;;;;4938741;29;20048;-87
2023/12/17 08:12:16;;;;;;;12.73;2.42;;;;;;;;;;4939179;29;20043;-83
2023/12/17 08:14:47;;;;;;;7.97;2.30;;;;;;;;;;4956121;29;20054;-88
2023/12/17 08:17:19;;;;;;;9.02;2.53;;;;;;;;;;4939616;29;20062;-84
2023/12/17 08:19:49;;;;;;;5.22;2.25;;;;;;;;;;4952853;29;20058;-84
2023/12/17 08:22:19;;;;;;;9.88;2.85;;;;;;;;;;4939214;29;20047;-84
2023/12/17 08:24:50;;;;;;;5.10;2.67;;;;;;;;;;4938603;29;20367;-84
2023/12/17 08:27:21;;;;;;;8.93;2.30;;;;;;;;;;4937610;29;20047;-83
2023/12/17 08:29:51;;;;;;;6.82;2.55;;;;;;;;;;4938752;29;20035;-84
2023/12/17 08:32:23;;;;;;;8.38;3.25;;;;;;;;;;4937976;29;20055;-87
2023/12/17 08:34:53;;;;;;;5.45;2.22;;;;;;;;;;4954792;29;20390;-84
2023/12/17 08:37:26;;;;;;;7.68;2.22;;;;;;;;;;4939517;29;20050;-86
2023/12/17 08:39:57;;;;;;;11.40;2.75;;;;;;;;;;4955543;29;20378;-88
2023/12/17 08:42:28;;;;;;;6.25;2.25;;;;;;;;;;4938304;29;20050;-84
2023/12/17 08:44:58;;;;;;;10.88;2.65;;;;;;;;;;4939519;29;20043;-84
2023/12/17 08:47:30;;;;;;;5.13;2.47;;;;;;;;;;4954814;29;20047;-85
2023/12/17 08:50:02;;;;;;;8.23;2.25;;;;;;;;;;4954975;29;20050;-84
2023/12/17 08:52:36;;;;;;;6.65;2.50;;;;;;;;;;4940134;29;20047;-84
2023/12/17 08:55:07;;;;;;;7.80;2.15;;;;;;;;;;4923137;29;20058;-84
2023/12/17 08:57:38;;;;;;;7.85;2.13;;;;;;;;;;4922963;29;20047;-87
2023/12/17 09:00:10;;;;;;;9.85;2.33;;;;;;;;;;4953978;29;20043;-84
2023/12/17 09:02:41;;;;;;;8.40;2.30;;;;;;;;;;4937155;29;20043;-84
2023/12/17 09:05:12;;;;;;;7.28;2.35;;;;;;;;;;4955330;29;20047;-84
2023/12/17 09:07:43;;;;;;;4.65;2.17;;;;;;;;;;4954921;29;20039;-85
2023/12/17 09:10:14;;;;;;;6.22;2.15;;;;;;;;;;4953940;29;20050;-84
2023/12/17 09:12:45;;;;;;;5.53;2.03;;;;;;;;;;4939171;29;20485;-84
2023/12/17 09:15:16;;;;;;;10.05;1.90;;;;;;;;;;4937555;29;20047;-84
2023/12/17 09:17:47;;;;;;;6.45;2.17;;;;;;;;;;4922658;29;20047;-84
2023/12/17 09:20:18;;;;;;;6.45;2.40;;;;;;;;;;4936754;29;20386;-85
2023/12/17 09:22:48;;;;;;;9.35;1.92;;;;;;;;;;4922722;29;20058;-86
2023/12/17 09:25:19;;;;;;;9.15;2.10;;;;;;;;;;4953230;29;20059;-84
2023/12/17 09:27:51;;;;;;;2.97;1.67;;;;;;;;;;4953422;29;20054;-84
2023/12/17 09:30:23;;;;;;;7.13;2.35;;;;;;;;;;4937789;29;20382;-85
2023/12/17 09:32:54;;;;;;;6.18;2.05;;;;;;;;;;4938815;29;20046;-84
2023/12/17 09:35:24;;;;;;;6.10;1.73;;;;;;;;;;4921939;29;20047;-84
2023/12/17 09:37:54;;;;;;;9.30;1.65;;;;;;;;;;4938246;29;20043;-84
2023/12/17 09:40:24;;;;;;;5.32;1.70;;;;;;;;;;4953387;29;20043;-84
2023/12/17 09:42:56;;;;;;;6.00;2.00;;;;;;;;;;4921798;29;20051;-84
2023/12/17 09:45:27;;;;;;;5.38;1.85;;;;;;;;;;4953564;28;20051;-84
2023/12/17 09:47:57;;;;;;;7.50;2.08;;;;;;;;;;4920006;28;20058;-83
2023/12/17 09:50:29;;;;;;;13.13;3.08;;;;;;;;;;4939795;29;20054;-83
2023/12/17 09:53:00;;;;;;;6.20;2.25;;;;;;;;;;4920283;28;20137;-86
2023/12/17 09:55:30;;;;;;;4.13;1.70;;;;;;;;;;4956859;28;20074;-86
2023/12/17 09:58:06;;;;;;;6.85;2.80;;;;;;;;;;4938468;29;20103;-84
2023/12/17 10:00:37;;;;;;;10.98;3.38;;;;;;;;;;4948049;29;20047;-83
2023/12/17 10:03:12;;;;;;;14.00;3.72;;;;;;;;;;4947309;29;20077;-87
2023/12/17 10:05:48;;;;;;;11.50;4.55;;;;;;;;;;4964419;29;20047;-87
2023/12/17 10:08:20;;;;;;;22.20;10.23;;;;;;;;;;4966564;28;20047;-85
2023/12/17 10:10:51;;;;;;;29.05;13.88;;;;;;;;;;4961133;28;20031;-84
2023/12/17 10:13:23;;;;;;;9.95;4.78;;;;;;;;;;4953472;29;20482;-85
2023/12/17 10:15:55;;;;;;;8.23;2.88;;;;;;;;;;4935663;29;20062;-86
2023/12/17 10:18:26;;;;;;;11.88;3.50;;;;;;;;;;4938954;29;20818;-84
2023/12/17 10:20:57;;;;;;;10.63;4.70;;;;;;;;;;4928185;29;20055;-85
2023/12/17 10:23:29;;;;;;;13.85;7.70;;;;;;;;;;4935200;29;20483;-84
2023/12/17 10:26:01;;;;;;;36.00;18.73;;;;;;;;;;4947151;29;20371;-83
2023/12/17 10:28:32;;;;;;;31.00;17.38;;;;;;;;;;4945690;29;20039;-86
2023/12/17 10:31:03;;;;;;;39.67;21.08;;;;;;;;;;4938636;29;20051;-85
2023/12/17 10:33:41;;;;;;;26.85;13.68;;;;;;;;;;4939462;29;20039;-87
2023/12/17 10:36:12;;;;;;;28.13;15.90;;;;;;;;;;4955702;29;20059;-85
2023/12/17 10:38:43;;;;;;;38.78;22.33;;;;;;;;;;4955791;29;20059;-83
2023/12/17 10:41:15;;;;;;;37.80;20.00;;;;;;;;;;4955240;29;20059;-84
2023/12/17 10:43:48;;;;;;;37.00;21.10;;;;;;;;;;4939185;29;20505;-84
2023/12/17 10:46:18;;;;;;;46.60;25.13;;;;;;;;;;4937782;29;20054;-84
2023/12/17 10:48:48;;;;;;;44.40;24.52;;;;;;;;;;4939240;29;20040;-84
2023/12/17 10:51:23;;;;;;;33.17;20.05;;;;;;;;;;4955129;29;20059;-83
2023/12/17 10:53:54;;;;;;;37.10;20.20;;;;;;;;;;4939587;29;20062;-84
2023/12/17 10:56:25;;;;;;;34.38;18.55;;;;;;;;;;4957646;29;20051;-85
2023/12/17 10:58:55;;;;;;;31.92;16.60;;;;;;;;;;4957446;29;20363;-86
2023/12/17 11:01:27;;;;;;;28.55;16.73;;;;;;;;;;4939040;29;20055;-83
2023/12/17 11:03:58;;;;;;;30.48;18.42;;;;;;;;;;4957451;29;20039;-83
2023/12/17 11:06:29;;;;;;;;;;;;;;;;;;4939420;29;20047;-84
2023/12/17 11:08:59;;;;;;;26.10;13.77;;;;;;;;;;4956864;29;19928;-84
2023/12/17 11:11:32;;;;;;;13.93;7.35;;;;;;;;;;4923851;29;20047;-86
2023/12/17 11:14:03;;;;;;;19.90;10.73;;;;;;;;;;4940286;29;20378;-82
2023/12/17 11:16:33;;;;;;;21.63;10.32;;;;;;;;;;4956511;29;20046;-82
2023/12/17 11:19:04;;;;;;;14.65;5.78;;;;;;;;;;4956727;29;20051;-81
2023/12/17 11:21:35;;;;;;;7.80;4.55;;;;;;;;;;4955883;28;20050;-87
2023/12/17 11:24:07;;;;;;;8.80;4.20;;;;;;;;;;4956673;29;20047;-82
2023/12/17 11:26:45;;;;;;;7.57;3.25;;;;;;;;;;4938874;29;20050;-85
2023/12/17 11:29:36;;;;;;;5.63;2.80;;;;;;;;;;4956562;29;20073;-85
2023/12/17 11:32:10;;;;;;;4.88;2.50;;;;;;;;;;4924089;29;20058;-82
2023/12/17 11:34:41;;;;;;;7.43;2.42;;;;;;;;;;4957424;29;20048;-84
2023/12/17 11:37:12;;;;;;;3.45;1.58;;;;;;;;;;4957048;29;20039;-82
2023/12/17 11:39:44;;;;;;;4.35;1.88;;;;;;;;;;4938761;29;20047;-84
2023/12/17 11:42:14;;;;;;;8.15;1.98;;;;;;;;;;4938263;29;20490;-82
2023/12/17 11:44:52;;;;;;;3.03;1.65;;;;;;;;;;4939747;29;20051;-81
2023/12/17 11:47:26;;;;;;;4.13;1.73;;;;;;;;;;4956416;29;20043;-85
2023/12/17 11:50:00;;;;;;;3.42;1.50;;;;;;;;;;4956060;29;20378;-81
2023/12/17 11:52:35;;;;;;;3.40;1.60;;;;;;;;;;4956503;29;20047;-85
2023/12/17 11:55:05;;;;;;;4.30;1.60;;;;;;;;;;4938876;29;20039;-85
2023/12/17 11:57:36;;;;;;;3.67;1.40;;;;;;;;;;4937957;29;20058;-82
2023/12/17 12:00:12;;;;;;;4.82;1.65;;;;;;;;;;4956211;29;20047;-82
2023/12/17 12:02:43;;;;;;;5.28;1.70;;;;;;;;;;4957585;29;20062;-83
2023/12/17 12:05:18;;;;;;;5.22;1.75;;;;;;;;;;4956692;29;20070;-84
2023/12/17 12:07:53;;;;;;;4.78;1.73;;;;;;;;;;4957083;29;20050;-82
2023/12/17 12:10:23;;;;;;;3.38;1.60;;;;;;;;;;4956050;29;20493;-82
2023/12/17 12:13:04;;;;;;;5.28;1.30;;;;;;;;;;4939488;29;20054;-84
2023/12/17 12:15:35;;;;;;;3.03;1.50;;;;;;;;;;4956007;29;20043;-82
2023/12/17 12:18:18;;;;;;;5.65;1.90;;;;;;;;;;4956153;28;20055;-81
2023/12/17 12:20:50;;;;;;;3.75;1.65;;;;;;;;;;4939194;29;20043;-83
2023/12/17 12:23:21;;;;;;;4.45;1.52;;;;;;;;;;4955785;29;20035;-82
2023/12/17 12:25:57;;;;;;;4.30;1.73;;;;;;;;;;4939855;29;20050;-84
2023/12/17 12:28:28;;;;;;;3.28;1.58;;;;;;;;;;4938060;29;20363;-83
2023/12/17 12:31:09;;;;;;;4.18;1.70;;;;;;;;;;4955785;29;20381;-84
2023/12/17 12:33:39;;;;;;;4.80;1.60;;;;;;;;;;4954824;29;20378;-84
2023/12/17 12:36:11;;;;;;;3.30;1.70;;;;;;;;;;4955404;29;20040;-83
2023/12/17 12:38:41;;;;;;;4.10;1.85;;;;;;;;;;4955494;29;20043;-82
2023/12/17 12:41:12;;;;;;;5.30;1.98;;;;;;;;;;4955290;29;20042;-85
2023/12/17 12:43:42;;;;;;;3.47;1.85;;;;;;;;;;4956157;29;20354;-85
2023/12/17 12:46:12;;;;;;;2.53;1.55;;;;;;;;;;4937197;29;20051;-82
2023/12/17 12:48:43;;;;;;;4.57;1.50;;;;;;;;;;4955450;29;20050;-83
2023/12/17 12:51:13;;;;;;;3.50;1.90;;;;;;;;;;4938202;29;20230;-84
2023/12/17 12:53:44;;;;;;;6.45;1.92;;;;;;;;;;4922260;29;20051;-83
2023/12/17 12:56:16;;;;;;;4.10;1.75;;;;;;;;;;4937397;29;20051;-83
2023/12/17 12:58:47;;;;;;;6.65;1.90;;;;;;;;;;4938240;29;20378;-81
2023/12/17 13:01:16;;;;;;;2.92;1.55;;;;;;;;;;4955267;29;20046;-83
2023/12/17 13:03:47;;;;;;;6.38;1.55;;;;;;;;;;4955805;29;20120;-84
2023/12/17 13:06:17;;;;;;;2.75;1.58;;;;;;;;;;4953096;29;20051;-85
2023/12/17 13:08:48;;;;;;;;;;;;;;;;;;4953738;29;20434;-85
2023/12/17 13:11:19;;;;;;;4.43;1.60;;;;;;;;;;4954252;29;19926;-82
2023/12/17 13:13:49;;;;;;;4.28;2.13;;;;;;;;;;4954166;29;20055;-83
2023/12/17 13:16:19;;;;;;;3.65;2.00;;;;;;;;;;4955349;29;20047;-85
2023/12/17 13:18:49;;;;;;;5.25;2.03;;;;;;;;;;4955437;29;20047;-82
2023/12/17 13:21:30;;;;;;;7.38;1.83;;;;;;;;;;4955715;29;20048;-84
2023/12/17 13:24:00;;;;;;;6.75;1.58;;;;;;;;;;4938015;29;20050;-82
2023/12/17 13:26:31;;;;;;;3.67;1.55;;;;;;;;;;4954941;29;20054;-83
2023/12/17 13:29:00;;;;;;;3.70;1.50;;;;;;;;;;4956087;29;20486;-83
2023/12/17 13:31:35;;;;;;;5.32;1.73;;;;;;;;;;4938514;29;20501;-82
2023/12/17 13:34:06;;;;;;;3.15;1.60;;;;;;;;;;4955456;29;20512;-84
2023/12/17 13:36:37;;;;;;;7.13;1.83;;;;;;;;;;4955511;29;20382;-82
2023/12/17 13:39:07;;;;;;;5.05;1.70;;;;;;;;;;4955113;29;20470;-83
2023/12/17 13:41:38;;;;;;;2.45;1.30;;;;;;;;;;4938405;29;20047;-84
2023/12/17 13:44:16;;;;;;;2.50;1.27;;;;;;;;;;4941457;29;20066;-82
2023/12/17 13:46:46;;;;;;;4.55;1.67;;;;;;;;;;4942184;29;20435;-82
2023/12/17 13:49:17;;;;;;;6.10;2.13;;;;;;;;;;4942063;29;20051;-83
2023/12/17 13:51:48;;;;;;;4.93;1.60;;;;;;;;;;4958558;29;20050;-82
2023/12/17 13:54:18;;;;;;;4.15;1.88;;;;;;;;;;4958271;29;20039;-84
2023/12/17 13:56:48;;;;;;;4.90;1.67;;;;;;;;;;4957579;29;20501;-84
2023/12/17 13:59:18;;;;;;;5.05;1.60;;;;;;;;;;4924396;29;20047;-85
2023/12/17 14:01:49;;;;;;;4.72;1.60;;;;;;;;;;4958405;29;20050;-83
2023/12/17 14:04:21;;;;;;;3.22;1.27;;;;;;;;;;4940967;29;20051;-85
2023/12/17 14:06:52;;;;;;;3.08;1.52;;;;;;;;;;4958579;29;20058;-83
2023/12/17 14:09:22;;;;;;;5.70;1.60;;;;;;;;;;4958224;29;20039;-83
2023/12/17 14:11:53;;;;;;;3.13;1.60;;;;;;;;;;4941689;29;20051;-84
2023/12/17 14:14:22;;;;;;;4.00;1.63;;;;;;;;;;4925423;29;20070;-86
2023/12/17 14:16:52;;;;;;;5.15;1.73;;;;;;;;;;4940515;29;20106;-83
2023/12/17 14:19:24;;;;;;;4.20;1.70;;;;;;;;;;4941151;29;20047;-84
2023/12/17 14:21:55;;;;;;;;;;;;;;;;;;4957343;29;20043;-81
2023/12/17 14:24:26;;;;;;;4.22;1.60;;;;;;;;;;4956898;29;19918;-81
2023/12/17 14:26:56;;;;;;;7.65;1.95;;;;;;;;;;4955475;29;20070;-83
2023/12/17 14:29:28;;;;;;;3.58;1.52;;;;;;;;;;4958637;29;20485;-82
2023/12/17 14:32:02;;;;;;;2.90;1.23;;;;;;;;;;4958131;29;20390;-82
2023/12/17 14:34:37;;;;;;;3.70;1.40;;;;;;;;;;4957728;29;20040;-81
2023/12/17 14:37:07;;;;;;;2.72;1.67;;;;;;;;;;4924907;29;20046;-84
2023/12/17 14:39:40;;;;;;;5.13;1.63;;;;;;;;;;4939323;29;20405;-82
2023/12/17 14:42:10;;;;;;;3.47;1.40;;;;;;;;;;4938575;29;20050;-85
2023/12/17 14:44:41;;;;;;;;;;;;;;;;;;4940666;29;20482;-81
2023/12/17 14:47:12;;;;;;;5.35;1.63;;;;;;;;;;4957792;29;19934;-83
2023/12/17 14:49:42;;;;;;;5.15;1.65;;;;;;;;;;4957187;29;20050;-81
2023/12/17 14:52:12;;;;;;;3.47;1.60;;;;;;;;;;4939374;29;20062;-81
2023/12/17 14:54:43;;;;;;;2.13;1.33;;;;;;;;;;4957222;28;20043;-81
2023/12/17 14:57:13;;;;;;;2.85;1.98;;;;;;;;;;4939563;29;20394;-81
2023/12/17 14:59:43;;;;;;;1.88;1.23;;;;;;;;;;4957705;29;20343;-84
2023/12/17 15:02:14;;;;;;;2.70;1.42;;;;;;;;;;4940803;29;20054;-81
2023/12/17 15:04:45;;;;;;;3.08;1.33;;;;;;;;;;4957128;29;20050;-82
2023/12/17 15:07:15;;;;;;;3.35;1.85;;;;;;;;;;4957572;29;20050;-83
2023/12/17 15:09:46;;;;;;;2.42;1.25;;;;;;;;;;4957615;29;20039;-82
2023/12/17 15:12:16;;;;;;;3.13;1.58;;;;;;;;;;4938944;29;20081;-83
2023/12/17 15:14:46;;;;;;;5.60;1.45;;;;;;;;;;4957203;29;20160;-82